Time,TemperatureF,DewpointF,PressureIn,WindDirection,WindDirectionDegrees,WindSpeedMPH,WindSpeedGustMPH,Humidity,HourlyPrecipIn,Conditions,Clouds,dailyrainin,SoftwareType,DateUTC
2013-05-13 00:22:00,56.0,39.0,29.98,North,0,0.0,-999.0,53,0.00,,,-99.99,,2013-05-13 07:22:00,
2013-05-13 00:31:00,56.0,39.0,29.98,North,0,0.0,-999.0,53,0.00,,,-99.99,,2013-05-13 07:31:00,
2013-05-13 01:21:00,55.0,40.0,29.98,North,0,0.0,-999.0,56,0.00,,,-99.99,,2013-05-13 08:21:00,
2013-05-13 01:31:00,55.0,40.0,29.98,North,0,0.0,-999.0,56,0.00,,,-99.99,,2013-05-13 08:31:00,
2013-05-13 02:21:00,55.0,40.0,29.96,North,0,0.0,-999.0,57,0.00,,,-99.99,,2013-05-13 09:21:00,
2013-05-13 02:33:00,55.0,40.0,29.96,North,0,0.0,-999.0,57,0.00,,,-99.99,,2013-05-13 09:33:00,
2013-05-13 03:22:00,54.0,40.0,29.95,North,0,0.0,-999.0,58,0.00,,,-99.99,,2013-05-13 10:22:00,
2013-05-13 03:32:00,54.0,40.0,29.95,North,0,0.0,-999.0,58,0.00,,,-99.99,,2013-05-13 10:32:00,
2013-05-13 04:21:00,54.0,40.0,29.95,North,0,0.0,-999.0,58,0.00,,,-99.99,,2013-05-13 11:21:00,
2013-05-13 04:32:00,54.0,40.0,29.95,North,0,0.0,-999.0,58,0.00,,,-99.99,,2013-05-13 11:32:00,
2013-05-13 05:21:00,54.0,40.0,29.95,North,0,0.0,-999.0,59,0.00,,,-99.99,,2013-05-13 12:21:00,
2013-05-13 05:32:00,54.0,40.0,29.95,North,0,0.0,-999.0,59,0.00,,,-99.99,,2013-05-13 12:32:00,
2013-05-13 06:21:00,53.0,41.0,29.95,North,0,0.0,-999.0,63,0.00,,,-99.99,,2013-05-13 13:21:00,
2013-05-13 06:31:00,53.0,41.0,29.95,North,0,0.0,-999.0,63,0.00,,,-99.99,,2013-05-13 13:31:00,
2013-05-13 08:21:00,65.0,52.0,29.96,North,0,0.0,-999.0,63,0.00,,,-99.99,,2013-05-13 15:21:00,
2013-05-13 08:31:00,65.0,52.0,29.96,North,0,0.0,-999.0,63,0.00,,,-99.99,,2013-05-13 15:31:00,
2013-05-13 09:21:00,75.0,41.0,29.95,North,0,0.0,-999.0,30,0.00,,,-99.99,,2013-05-13 16:21:00,
2013-05-13 09:33:00,75.0,41.0,29.95,North,0,0.0,-999.0,30,0.00,,,-99.99,,2013-05-13 16:33:00,
2013-05-13 09:42:00,75.0,41.0,29.95,North,0,0.0,-999.0,30,0.00,,,-99.99,,2013-05-13 16:42:00,
2013-05-13 09:52:00,75.0,41.0,29.95,North,0,0.0,-999.0,30,0.00,,,-99.99,,2013-05-13 16:52:00,
2013-05-13 10:21:00,80.0,35.0,29.96,North,0,0.0,-999.0,20,0.00,,,-99.99,,2013-05-13 17:21:00,
2013-05-13 10:32:00,80.0,35.0,29.96,North,0,0.0,-999.0,20,0.00,,,-99.99,,2013-05-13 17:32:00,
2013-05-13 10:42:00,80.0,35.0,29.96,North,0,0.0,-999.0,20,0.00,,,-99.99,,2013-05-13 17:42:00,
2013-05-13 10:54:00,80.0,35.0,29.96,North,0,0.0,-999.0,20,0.00,,,-99.99,,2013-05-13 17:54:00,
2013-05-13 11:23:00,82.0,36.0,29.96,ESE,120,3.0,-999.0,19,0.00,,,-99.99,,2013-05-13 18:23:00,
2013-05-13 11:32:00,82.0,36.0,29.96,ESE,120,3.0,-999.0,19,0.00,,,-99.99,,2013-05-13 18:32:00,
2013-05-13 11:42:00,82.0,36.0,29.96,ESE,120,3.0,-999.0,19,0.00,,,-99.99,,2013-05-13 18:42:00,
2013-05-13 11:51:00,82.0,36.0,29.96,ESE,120,3.0,-999.0,19,0.00,,,-99.99,,2013-05-13 18:51:00,
2013-05-13 12:21:00,81.0,35.0,29.96,North,0,0.0,-999.0,19,0.00,,,-99.99,,2013-05-13 19:21:00,
2013-05-13 12:32:00,81.0,35.0,29.96,North,0,0.0,-999.0,19,0.00,,,-99.99,,2013-05-13 19:32:00,
2013-05-13 12:43:00,81.0,35.0,29.96,North,0,0.0,-999.0,19,0.00,,,-99.99,,2013-05-13 19:43:00,
2013-05-13 12:52:00,81.0,35.0,29.96,North,0,0.0,-999.0,19,0.00,,,-99.99,,2013-05-13 19:52:00,
2013-05-13 13:23:00,83.0,35.0,29.95,ESE,110,1.0,-999.0,18,0.00,,,-99.99,,2013-05-13 20:23:00,
2013-05-13 13:33:00,83.0,35.0,29.95,ESE,110,1.0,-999.0,18,0.00,,,-99.99,,2013-05-13 20:33:00,
2013-05-13 13:44:00,83.0,35.0,29.95,ESE,110,1.0,-999.0,18,0.00,,,-99.99,,2013-05-13 20:44:00,
2013-05-13 13:53:00,83.0,35.0,29.95,ESE,110,1.0,-999.0,18,0.00,,,-99.99,,2013-05-13 20:53:00,
2013-05-13 14:23:00,82.0,31.0,29.94,North,0,0.0,-999.0,16,0.00,,,-99.99,,2013-05-13 21:23:00,
2013-05-13 14:33:00,82.0,31.0,29.94,North,0,0.0,-999.0,16,0.00,,,-99.99,,2013-05-13 21:33:00,
2013-05-13 14:43:00,82.0,31.0,29.94,North,0,0.0,-999.0,16,0.00,,,-99.99,,2013-05-13 21:43:00,
2013-05-13 14:53:00,82.0,31.0,29.94,North,0,0.0,-999.0,16,0.00,,,-99.99,,2013-05-13 21:53:00,
2013-05-13 15:23:00,82.0,37.0,29.92,North,0,0.0,-999.0,20,0.00,,,-99.99,,2013-05-13 22:23:00,
2013-05-13 15:32:00,82.0,37.0,29.92,North,0,0.0,-999.0,20,0.00,,,-99.99,,2013-05-13 22:32:00,
2013-05-13 15:42:00,82.0,37.0,29.92,North,0,0.0,-999.0,20,0.00,,,-99.99,,2013-05-13 22:42:00,
2013-05-13 15:52:00,82.0,37.0,29.92,North,0,0.0,-999.0,20,0.00,,,-99.99,,2013-05-13 22:52:00,
2013-05-13 16:23:00,82.0,34.0,29.90,West,260,1.0,-999.0,18,0.00,,,-99.99,,2013-05-13 23:23:00,
2013-05-13 16:33:00,82.0,34.0,29.90,West,260,1.0,-999.0,18,0.00,,,-99.99,,2013-05-13 23:33:00,
2013-05-13 16:42:00,82.0,34.0,29.90,West,260,1.0,-999.0,18,0.00,,,-99.99,,2013-05-13 23:42:00,
2013-05-13 16:53:00,82.0,34.0,29.90,West,260,1.0,-999.0,18,0.00,,,-99.99,,2013-05-13 23:53:00,
2013-05-13 17:22:00,79.0,33.0,29.87,North,0,0.0,-999.0,19,0.00,,,-99.99,,2013-05-14 00:22:00,
2013-05-13 17:31:00,79.0,33.0,29.87,North,0,0.0,-999.0,19,0.00,,,-99.99,,2013-05-14 00:31:00,
2013-05-13 17:41:00,79.0,33.0,29.87,North,0,0.0,-999.0,19,0.00,,,-99.99,,2013-05-14 00:41:00,
2013-05-13 17:51:00,79.0,33.0,29.87,North,0,0.0,-999.0,19,0.00,,,-99.99,,2013-05-14 00:51:00,
2013-05-13 18:21:00,77.0,34.0,29.86,North,0,0.0,-999.0,21,0.00,,,-99.99,,2013-05-14 01:21:00,
2013-05-13 18:31:00,77.0,34.0,29.86,North,0,0.0,-999.0,21,0.00,,,-99.99,,2013-05-14 01:31:00,
2013-05-13 18:43:00,77.0,34.0,29.86,North,0,0.0,-999.0,21,0.00,,,-99.99,,2013-05-14 01:43:00,
2013-05-13 18:52:00,77.0,34.0,29.86,North,0,0.0,-999.0,21,0.00,,,-99.99,,2013-05-14 01:52:00,
2013-05-13 19:22:00,74.0,40.0,29.87,SW,220,1.0,-999.0,29,0.00,,,-99.99,,2013-05-14 02:22:00,
2013-05-13 19:31:00,74.0,40.0,29.87,SW,220,1.0,-999.0,29,0.00,,,-99.99,,2013-05-14 02:31:00,
2013-05-13 19:42:00,74.0,40.0,29.87,SW,220,1.0,-999.0,29,0.00,,,-99.99,,2013-05-14 02:42:00,
2013-05-13 19:51:00,74.0,40.0,29.87,SW,220,1.0,-999.0,29,0.00,,,-99.99,,2013-05-14 02:51:00,
2013-05-13 20:21:00,70.0,38.0,29.86,North,0,0.0,-999.0,31,0.00,,,-99.99,,2013-05-14 03:21:00,
2013-05-13 20:33:00,70.0,38.0,29.86,North,0,0.0,-999.0,31,0.00,,,-99.99,,2013-05-14 03:33:00,
2013-05-13 20:42:00,70.0,38.0,29.86,North,0,0.0,-999.0,31,0.00,,,-99.99,,2013-05-14 03:42:00,
2013-05-13 20:52:00,70.0,38.0,29.86,North,0,0.0,-999.0,31,0.00,,,-99.99,,2013-05-14 03:52:00,
2013-05-13 21:22:00,68.0,35.0,29.88,North,0,0.0,-999.0,29,0.00,,,-99.99,,2013-05-14 04:22:00,
2013-05-13 21:32:00,68.0,35.0,29.88,North,0,0.0,-999.0,29,0.00,,,-99.99,,2013-05-14 04:32:00,
2013-05-13 21:43:00,68.0,35.0,29.88,North,0,0.0,-999.0,29,0.00,,,-99.99,,2013-05-14 04:43:00,
2013-05-13 21:52:00,68.0,35.0,29.88,North,0,0.0,-999.0,29,0.00,,,-99.99,,2013-05-14 04:52:00,
2013-05-13 22:21:00,66.0,38.0,29.89,North,0,0.0,-999.0,35,0.00,,,-99.99,,2013-05-14 05:21:00,
2013-05-13 22:32:00,66.0,38.0,29.89,North,0,0.0,-999.0,35,0.00,,,-99.99,,2013-05-14 05:32:00,
2013-05-13 22:42:00,66.0,38.0,29.89,North,0,0.0,-999.0,35,0.00,,,-99.99,,2013-05-14 05:42:00,
2013-05-13 22:52:00,66.0,38.0,29.89,North,0,0.0,-999.0,35,0.00,,,-99.99,,2013-05-14 05:52:00,
2013-05-13 23:22:00,65.0,38.0,29.89,North,0,0.0,-999.0,37,0.00,,,-99.99,,2013-05-14 06:22:00,
2013-05-13 23:32:00,65.0,38.0,29.89,North,0,0.0,-999.0,37,0.00,,,-99.99,,2013-05-14 06:32:00,
2013-05-13 23:42:00,65.0,38.0,29.89,North,0,0.0,-999.0,37,0.00,,,-99.99,,2013-05-14 06:42:00,
2013-05-13 23:51:00,65.0,38.0,29.89,North,0,0.0,-999.0,37,0.00,,,-99.99,,2013-05-14 06:51:00,